createdAt,value
2023-04-07T00:00:38.321Z,5.9
2023-04-07T00:15:39.782Z,6.3
2023-04-07T00:30:39.366Z,7.2
2023-04-07T00:45:40.309Z,6.7
2023-04-07T01:00:40.635Z,5.7
2023-04-07T01:15:41.073Z,6
2023-04-07T01:30:41.982Z,6.2
2023-04-07T01:45:42.299Z,6.8
2023-04-07T02:00:42.824Z,6.6
2023-04-07T02:15:43.426Z,7.5
2023-04-07T02:30:44.203Z,6.5
2023-04-07T02:45:44.960Z,6.5
2023-04-07T03:00:45.123Z,7
2023-04-07T03:15:45.568Z,6.1
2023-04-07T03:30:46.095Z,6.3
2023-04-07T03:45:46.833Z,6.4
2023-04-07T04:00:46.865Z,6.4
2023-04-07T04:15:48.037Z,6.7
2023-04-07T04:30:47.401Z,5.9
2023-04-07T04:43:50.601Z,6.1
2023-04-07T04:58:50.499Z,6.2
2023-04-07T05:13:52.056Z,6.8
2023-04-07T05:28:51.752Z,6.8
2023-04-07T05:43:52.743Z,8.2
2023-04-07T06:13:53.175Z,7.8
2023-04-07T06:28:53.835Z,7.2
2023-04-07T06:43:54.412Z,8.1
2023-04-07T06:58:54.369Z,6.5
2023-04-07T07:13:55.204Z,7.1
2023-04-07T07:28:56.938Z,6.1
2023-04-07T07:43:56.438Z,5.6
2023-04-07T07:58:58.636Z,5.2
2023-04-07T08:13:57.670Z,5.2
2023-04-07T08:28:58.277Z,4.9
2023-04-07T08:43:57.888Z,5.1
2023-04-07T08:58:59.084Z,4.6
2023-04-07T09:13:58.836Z,4.5
2023-04-07T09:28:59.459Z,3.7
2023-04-07T09:44:00.464Z,2.8
2023-04-07T09:59:01.168Z,4.2
2023-04-07T10:14:01.284Z,4
2023-04-07T10:29:02.400Z,3.8
2023-04-07T10:44:03.778Z,3.7
2023-04-07T10:59:03.031Z,5.9
2023-04-07T11:14:03.001Z,3
2023-04-07T11:29:04.025Z,10.2
2023-04-07T11:44:04.763Z,3.3
2023-04-07T11:59:05.335Z,3.1
2023-04-07T12:14:06.841Z,2.9
2023-04-07T12:29:05.682Z,4.3
2023-04-07T12:44:07.800Z,4.1
2023-04-07T12:59:07.392Z,3.7
2023-04-07T13:14:07.604Z,4
2023-04-07T13:29:08.374Z,3.5
2023-04-07T13:44:08.811Z,2.9
2023-04-07T13:59:09.263Z,3
2023-04-07T14:14:10.248Z,2.8
2023-04-07T14:29:09.916Z,3.1
2023-04-07T14:44:10.422Z,2.7
2023-04-07T14:59:11.236Z,2.9
2023-04-07T15:14:11.321Z,3.8
2023-04-07T15:29:13.765Z,5.2
2023-04-07T15:44:13.246Z,4.8
2023-04-07T15:59:13.940Z,5.4
2023-04-07T16:14:18.848Z,5.6
2023-04-07T16:29:14.597Z,6.6
2023-04-07T16:44:16.027Z,8.2
2023-04-07T16:59:15.588Z,8.9
2023-04-07T17:14:16.378Z,6.1
2023-04-07T17:29:17.143Z,6.9
2023-04-07T17:44:17.543Z,7.8
2023-04-07T17:59:18.108Z,7.8
2023-04-07T18:14:18.987Z,7.3
2023-04-07T18:29:18.928Z,6.1
2023-04-07T18:44:19.895Z,6.9
2023-04-07T18:59:20.438Z,7.5
2023-04-07T19:14:19.622Z,8.8
2023-04-07T19:29:20.587Z,6.4
2023-04-07T19:44:21.265Z,4.1
2023-04-07T19:59:22.737Z,4
2023-04-07T20:14:22.421Z,3.8
2023-04-07T20:29:22.600Z,3.8
2023-04-07T20:44:23.430Z,4.3
2023-04-07T20:59:23.381Z,3.5
2023-04-07T21:14:25.039Z,4.3
2023-04-07T21:29:25.735Z,4.9
2023-04-07T21:44:26.666Z,6.1
2023-04-07T21:59:26.513Z,7.5
2023-04-07T22:00:44.558Z,7.9
2023-04-07T22:15:40.353Z,9.1
2023-04-07T22:30:41.695Z,9.2
2023-04-07T22:45:40.720Z,9.5
2023-04-07T23:00:42.339Z,10.9
2023-04-07T23:15:42.135Z,12
2023-04-07T23:30:43.010Z,11.6
2023-04-07T23:45:41.537Z,12
